createdAt,value
2022-11-02T00:01:39.806Z,10.80
2022-11-02T00:04:06.611Z,10.80
2022-11-02T00:06:33.675Z,10.80
2022-11-02T00:09:00.349Z,10.80
2022-11-02T00:11:27.154Z,10.70
2022-11-02T00:13:53.857Z,10.70
2022-11-02T00:16:21.056Z,10.70
2022-11-02T00:18:47.928Z,10.70
2022-11-02T00:21:15.150Z,10.70
2022-11-02T00:23:41.827Z,10.70
2022-11-02T00:26:08.504Z,10.70
2022-11-02T00:28:35.508Z,10.70
2022-11-02T00:31:02.158Z,10.70
2022-11-02T00:33:29.008Z,10.70
2022-11-02T00:35:55.728Z,10.70
2022-11-02T00:38:22.405Z,10.70
2022-11-02T00:40:49.128Z,10.70
2022-11-02T00:43:15.751Z,10.70
2022-11-02T00:45:42.458Z,10.70
2022-11-02T00:48:09.188Z,10.60
2022-11-02T00:50:35.868Z,10.60
2022-11-02T00:53:02.573Z,10.40
2022-11-02T00:55:29.577Z,10.60
2022-11-02T00:57:56.271Z,10.60
2022-11-02T01:00:23.013Z,10.60
2022-11-02T01:02:49.714Z,10.60
2022-11-02T01:05:16.420Z,10.60
2022-11-02T01:07:43.076Z,10.50
2022-11-02T01:10:09.900Z,10.50
2022-11-02T01:12:37.400Z,10.50
2022-11-02T01:15:04.982Z,10.40
2022-11-02T01:17:31.772Z,10.40
2022-11-02T01:19:58.401Z,10.40
2022-11-02T01:22:25.361Z,10.50
2022-11-02T01:24:51.995Z,10.40
2022-11-02T01:27:18.742Z,10.40
2022-11-02T01:29:45.409Z,10.30
2022-11-02T01:32:12.103Z,10.30
2022-11-02T01:34:38.784Z,10.30
2022-11-02T01:37:11.469Z,10.30
2022-11-02T01:39:38.171Z,10.30
2022-11-02T01:42:06.046Z,10.30
2022-11-02T01:44:33.604Z,10.20
2022-11-02T01:47:15.972Z,10.20
2022-11-02T01:49:43.372Z,10.20
2022-11-02T01:52:11.772Z,10.20
2022-11-02T01:54:52.100Z,10.20
2022-11-02T01:57:19.759Z,10.20
2022-11-02T01:59:53.107Z,10.10
2022-11-02T02:02:21.003Z,10.10
2022-11-02T02:04:50.026Z,10.10
2022-11-02T02:07:16.671Z,10.10
2022-11-02T02:09:47.188Z,10.10
2022-11-02T02:12:17.005Z,10.10
2022-11-02T02:14:43.657Z,10.10
2022-11-02T02:17:18.441Z,10.00
2022-11-02T02:20:04.711Z,10.10
2022-11-02T02:22:47.287Z,10.00
2022-11-02T02:25:17.091Z,10.00
2022-11-02T02:27:49.770Z,10.00
2022-11-02T02:30:16.516Z,10.00
2022-11-02T02:32:43.144Z,10.00
2022-11-02T02:35:28.615Z,9.90
2022-11-02T02:37:55.312Z,9.90
2022-11-02T02:40:23.817Z,9.90
2022-11-02T02:42:54.658Z,9.90
2022-11-02T02:45:38.119Z,9.90
2022-11-02T02:48:09.618Z,9.90
2022-11-02T02:50:41.017Z,9.90
2022-11-02T02:53:07.904Z,9.90
2022-11-02T02:55:36.734Z,9.80
2022-11-02T02:58:03.702Z,9.80
2022-11-02T03:00:30.681Z,9.80
2022-11-02T03:03:03.418Z,9.80
2022-11-02T03:05:36.805Z,9.80
2022-11-02T03:08:06.221Z,9.80
2022-11-02T03:10:34.741Z,9.80
2022-11-02T03:13:24.790Z,9.80
2022-11-02T03:15:51.577Z,9.80
2022-11-02T03:18:36.759Z,9.80
2022-11-02T03:21:06.551Z,9.80
2022-11-02T03:23:41.394Z,9.80
2022-11-02T03:26:08.142Z,9.70
2022-11-02T03:28:43.556Z,9.80
2022-11-02T03:31:12.772Z,9.80
2022-11-02T03:33:43.233Z,9.80
2022-11-02T03:36:14.297Z,9.80
2022-11-02T03:38:45.275Z,9.80
2022-11-02T03:41:12.116Z,9.80
2022-11-02T03:43:38.944Z,9.80
2022-11-02T03:46:06.121Z,9.80
2022-11-02T03:48:36.027Z,9.80
2022-11-02T03:51:03.202Z,9.80
2022-11-02T03:53:44.148Z,9.80
2022-11-02T03:56:15.021Z,9.80
2022-11-02T03:58:42.967Z,9.80
2022-11-02T04:01:09.628Z,9.70
2022-11-02T04:03:37.836Z,9.60
2022-11-02T04:06:04.489Z,9.80
2022-11-02T04:08:40.992Z,9.80
2022-11-02T04:11:26.367Z,9.80
2022-11-02T04:14:11.719Z,9.80
2022-11-02T04:16:38.651Z,9.80
2022-11-02T04:19:24.204Z,9.80
2022-11-02T04:22:09.394Z,9.80
2022-11-02T04:24:54.927Z,9.80
2022-11-02T04:27:21.844Z,9.80
2022-11-02T04:29:48.820Z,9.80
2022-11-02T04:32:35.827Z,9.70
2022-11-02T04:35:03.301Z,9.70
2022-11-02T04:37:56.409Z,9.80
2022-11-02T04:40:23.164Z,9.90
2022-11-02T04:42:49.774Z,9.60
2022-11-02T04:45:16.395Z,9.60
2022-11-02T04:47:43.055Z,9.50
2022-11-02T04:50:09.751Z,9.50
2022-11-02T04:52:36.641Z,9.50
2022-11-02T04:55:03.320Z,9.40
2022-11-02T04:57:30.039Z,9.40
2022-11-02T04:59:56.886Z,9.40
2022-11-02T05:02:23.603Z,9.40
2022-11-02T05:04:50.363Z,9.40
2022-11-02T05:07:17.011Z,9.40
2022-11-02T05:09:46.606Z,9.40
2022-11-02T05:12:13.180Z,9.30
2022-11-02T05:14:40.092Z,9.30
2022-11-02T05:17:06.779Z,9.30
2022-11-02T05:19:33.609Z,9.30
2022-11-02T05:22:00.228Z,9.30
2022-11-02T05:24:26.952Z,9.40
2022-11-02T05:26:54.142Z,9.30
2022-11-02T05:29:20.874Z,9.40
2022-11-02T05:31:47.478Z,9.40
2022-11-02T05:34:14.125Z,9.40
2022-11-02T05:36:41.005Z,9.40
2022-11-02T05:39:07.711Z,9.40
2022-11-02T05:41:34.384Z,9.40
2022-11-02T05:44:01.016Z,9.40
2022-11-02T05:46:27.746Z,9.40
2022-11-02T05:48:54.402Z,9.40
2022-11-02T05:51:21.181Z,9.40
2022-11-02T05:53:47.821Z,9.40
2022-11-02T05:56:14.705Z,9.40
2022-11-02T05:58:41.652Z,9.50
2022-11-02T06:01:08.735Z,9.50
2022-11-02T06:03:36.192Z,9.50
2022-11-02T06:06:03.868Z,9.60
2022-11-02T06:08:34.159Z,9.60
2022-11-02T06:11:05.131Z,9.60
2022-11-02T06:13:31.879Z,9.60
2022-11-02T06:15:59.304Z,9.70
2022-11-02T06:18:26.026Z,9.60
2022-11-02T06:20:52.769Z,9.60
2022-11-02T06:23:19.457Z,9.60
2022-11-02T06:25:52.824Z,9.60
2022-11-02T06:28:19.642Z,9.60
2022-11-02T06:30:46.294Z,9.60
2022-11-02T06:33:13.663Z,9.60
2022-11-02T06:35:40.693Z,9.60
2022-11-02T06:38:07.331Z,9.70
2022-11-02T06:40:34.053Z,9.70
2022-11-02T06:43:15.861Z,9.70
2022-11-02T06:45:43.664Z,9.70
2022-11-02T06:48:10.428Z,9.70
2022-11-02T06:50:37.304Z,9.70
2022-11-02T06:53:04.440Z,9.70
2022-11-02T06:55:31.324Z,9.70
2022-11-02T06:57:58.028Z,9.70
2022-11-02T07:00:26.061Z,9.70
2022-11-02T07:03:02.738Z,9.70
2022-11-02T07:05:29.724Z,9.60
2022-11-02T07:07:56.468Z,9.70
2022-11-02T07:10:23.232Z,9.70
2022-11-02T07:12:54.236Z,9.70
2022-11-02T07:15:21.459Z,9.70
2022-11-02T07:17:48.131Z,9.70
2022-11-02T07:20:14.912Z,9.80
2022-11-02T07:22:41.596Z,9.80
2022-11-02T07:25:08.471Z,9.90
2022-11-02T07:27:39.083Z,9.90
2022-11-02T07:30:06.478Z,10.00
2022-11-02T07:32:38.858Z,10.00
2022-11-02T07:35:06.950Z,10.00
2022-11-02T07:37:34.407Z,10.00
2022-11-02T07:40:01.062Z,10.00
2022-11-02T07:42:27.702Z,10.00
2022-11-02T07:44:54.444Z,10.20
2022-11-02T07:47:21.307Z,10.00
2022-11-02T07:49:48.024Z,10.10
2022-11-02T07:52:14.792Z,10.10
2022-11-02T07:54:44.586Z,10.20
2022-11-02T07:57:11.547Z,10.20
2022-11-02T07:59:38.384Z,10.30
2022-11-02T08:02:05.152Z,10.30
2022-11-02T08:04:31.846Z,10.40
2022-11-02T08:06:58.628Z,10.50
2022-11-02T08:09:27.931Z,10.60
2022-11-02T08:11:56.605Z,10.70
2022-11-02T08:14:23.417Z,10.80
2022-11-02T08:16:53.325Z,10.90
2022-11-02T08:19:20.176Z,11.00
2022-11-02T08:21:46.992Z,11.20
2022-11-02T08:24:13.666Z,11.30
2022-11-02T08:26:43.920Z,11.40
2022-11-02T08:29:12.329Z,11.60
2022-11-02T08:31:38.992Z,11.70
2022-11-02T08:34:11.907Z,11.80
2022-11-02T08:36:41.034Z,12.00
2022-11-02T08:39:08.084Z,12.00
2022-11-02T08:41:34.906Z,12.00
2022-11-02T08:44:01.615Z,12.10
2022-11-02T08:46:31.508Z,12.10
2022-11-02T08:48:58.210Z,12.20
2022-11-02T08:51:25.024Z,12.20
2022-11-02T08:53:52.137Z,12.20
2022-11-02T08:56:18.945Z,12.30
2022-11-02T08:58:45.621Z,12.30
2022-11-02T09:01:12.348Z,12.40
2022-11-02T09:03:39.132Z,12.40
2022-11-02T09:06:05.990Z,12.50
2022-11-02T09:08:33.265Z,12.50
2022-11-02T09:11:00.978Z,12.60
2022-11-02T09:13:27.970Z,12.60
2022-11-02T09:15:55.626Z,13.30
2022-11-02T09:18:22.550Z,12.70
2022-11-02T09:20:49.564Z,12.70
2022-11-02T09:23:16.534Z,12.70
2022-11-02T09:25:43.293Z,12.70
2022-11-02T09:28:10.331Z,12.80
2022-11-02T09:30:37.477Z,12.80
2022-11-02T09:33:05.217Z,12.90
2022-11-02T09:35:33.004Z,12.90
2022-11-02T09:37:59.736Z,12.90
2022-11-02T09:40:27.473Z,13.00
2022-11-02T09:43:13.030Z,13.00
2022-11-02T09:45:42.431Z,13.00
2022-11-02T09:48:20.964Z,13.10
2022-11-02T09:50:54.317Z,13.10
2022-11-02T09:53:25.115Z,13.20
2022-11-02T09:55:52.414Z,13.20
2022-11-02T09:58:21.279Z,13.30
2022-11-02T10:00:48.969Z,13.40
2022-11-02T10:03:21.803Z,13.50
2022-11-02T10:06:09.107Z,13.60
2022-11-02T10:08:35.827Z,13.70
2022-11-02T10:11:22.774Z,13.80
2022-11-02T10:14:10.957Z,13.90
2022-11-02T10:16:44.816Z,13.90
2022-11-02T10:19:15.578Z,13.90
2022-11-02T10:21:42.542Z,13.90
2022-11-02T10:24:15.419Z,13.90
2022-11-02T10:26:43.604Z,13.90
2022-11-02T10:29:17.308Z,13.90
2022-11-02T10:31:43.968Z,13.90
2022-11-02T10:34:16.817Z,13.90
2022-11-02T10:36:46.487Z,14.00
2022-11-02T10:39:22.540Z,14.00
2022-11-02T10:41:52.405Z,14.00
2022-11-02T10:44:19.090Z,14.10
2022-11-02T10:46:58.117Z,14.20
2022-11-02T10:49:39.959Z,14.30
2022-11-02T10:52:06.633Z,14.50
2022-11-02T10:54:34.547Z,14.90
2022-11-02T10:57:01.372Z,15.10
2022-11-02T10:59:28.094Z,15.40
2022-11-02T11:01:59.051Z,15.50
2022-11-02T11:04:26.904Z,15.50
2022-11-02T11:06:54.206Z,15.40
2022-11-02T11:09:21.684Z,15.20
2022-11-02T11:11:57.817Z,15.10
2022-11-02T11:20:31.547Z,15.10
2022-11-02T11:23:16.788Z,15.10
2022-11-02T11:25:43.499Z,15.20
2022-11-02T11:28:23.849Z,15.30
2022-11-02T11:31:02.310Z,15.00
2022-11-02T11:33:29.164Z,15.40
2022-11-02T11:35:55.841Z,15.40
2022-11-02T11:38:23.245Z,15.40
2022-11-02T11:40:54.058Z,15.40
2022-11-02T11:43:21.818Z,15.40
2022-11-02T11:46:15.182Z,15.40
2022-11-02T11:48:42.582Z,15.40
2022-11-02T11:51:25.527Z,15.30
2022-11-02T11:54:12.063Z,15.30
2022-11-02T11:56:45.957Z,15.40
2022-11-02T11:59:18.699Z,15.40
2022-11-02T12:01:45.487Z,15.40
2022-11-02T12:04:12.252Z,15.40
2022-11-02T12:06:41.941Z,15.50
2022-11-02T12:09:16.561Z,15.50
2022-11-02T12:11:43.205Z,15.50
2022-11-02T12:14:15.525Z,15.60
2022-11-02T12:17:00.693Z,15.60
2022-11-02T12:19:33.901Z,15.70
2022-11-02T12:22:03.283Z,15.80
2022-11-02T12:24:48.234Z,15.80
2022-11-02T12:27:29.732Z,15.80
2022-11-02T12:29:57.067Z,15.70
2022-11-02T12:32:36.001Z,15.70
2022-11-02T12:35:28.552Z,15.60
2022-11-02T12:38:00.608Z,15.60
2022-11-02T12:40:30.370Z,15.50
2022-11-02T12:42:58.606Z,15.50
2022-11-02T12:45:26.764Z,15.50
2022-11-02T12:48:00.112Z,15.50
2022-11-02T12:50:39.112Z,15.50
2022-11-02T12:53:10.459Z,15.60
2022-11-02T12:55:41.736Z,15.50
2022-11-02T12:58:12.413Z,15.50
2022-11-02T13:00:40.258Z,15.50
2022-11-02T13:03:12.964Z,15.50
2022-11-02T13:05:42.887Z,15.50
2022-11-02T13:08:11.701Z,15.50
2022-11-02T13:10:53.160Z,15.40
2022-11-02T13:13:26.850Z,15.40
2022-11-02T13:15:53.529Z,15.30
2022-11-02T13:18:30.364Z,15.30
2022-11-02T13:20:57.712Z,15.30
2022-11-02T13:23:33.583Z,15.30
2022-11-02T13:26:08.295Z,15.20
2022-11-02T13:28:37.115Z,15.20
2022-11-02T13:31:08.577Z,15.10
2022-11-02T13:33:47.360Z,15.10
2022-11-02T13:36:14.218Z,15.10
2022-11-02T13:38:48.421Z,15.10
2022-11-02T13:41:20.331Z,15.10
2022-11-02T13:43:59.833Z,15.10
2022-11-02T13:46:45.400Z,15.10
2022-11-02T13:49:12.680Z,15.10
2022-11-02T13:51:42.630Z,15.10
2022-11-02T13:54:12.795Z,15.10
2022-11-02T13:56:39.530Z,15.00
2022-11-02T13:59:07.214Z,15.00
2022-11-02T14:01:36.399Z,14.90
2022-11-02T14:04:04.700Z,14.90
2022-11-02T14:06:31.752Z,15.00
2022-11-02T14:08:59.653Z,15.00
2022-11-02T14:11:37.174Z,15.10
2022-11-02T14:14:04.230Z,15.20
2022-11-02T14:16:41.765Z,15.20
2022-11-02T14:19:19.220Z,15.20
2022-11-02T14:21:53.215Z,15.20
2022-11-02T14:24:46.183Z,15.20
2022-11-02T14:27:13.045Z,15.20
2022-11-02T14:29:45.072Z,15.20
2022-11-02T14:32:21.406Z,15.10
2022-11-02T14:34:54.043Z,15.20
2022-11-02T14:37:39.456Z,15.10
2022-11-02T14:40:13.160Z,15.10
2022-11-02T14:42:43.260Z,15.10
2022-11-02T14:45:24.788Z,15.10
2022-11-02T14:47:55.855Z,15.00
2022-11-02T14:50:23.149Z,15.00
2022-11-02T14:52:59.164Z,15.00
2022-11-02T14:55:27.302Z,15.00
2022-11-02T14:57:59.046Z,15.00
2022-11-02T15:00:31.574Z,15.00
2022-11-02T15:02:58.251Z,15.00
2022-11-02T15:05:37.648Z,15.00
2022-11-02T15:08:05.825Z,14.90
2022-11-02T15:10:32.480Z,14.90
2022-11-02T15:13:17.879Z,14.90
2022-11-02T15:15:50.835Z,14.90
2022-11-02T15:18:22.890Z,14.90
2022-11-02T15:21:10.121Z,14.80
2022-11-02T15:23:37.320Z,14.80
2022-11-02T15:26:05.761Z,14.80
2022-11-02T15:28:33.511Z,14.80
2022-11-02T15:31:01.934Z,14.80
2022-11-02T15:33:28.728Z,14.80
2022-11-02T15:35:55.486Z,14.80
2022-11-02T15:38:30.542Z,14.80
2022-11-02T15:41:18.268Z,14.80
2022-11-02T15:44:05.293Z,14.80
2022-11-02T15:46:50.856Z,14.80
2022-11-02T15:49:38.769Z,14.80
2022-11-02T15:52:08.484Z,14.70
2022-11-02T15:54:41.032Z,14.70
2022-11-02T15:57:15.709Z,14.80
2022-11-02T15:59:42.628Z,14.80
2022-11-02T16:02:15.101Z,14.80
2022-11-02T16:04:45.792Z,14.80
2022-11-02T16:07:12.484Z,14.70
2022-11-02T16:09:39.445Z,14.70
2022-11-02T16:12:12.968Z,14.70
2022-11-02T16:14:40.291Z,14.70
2022-11-02T16:17:17.973Z,14.80
2022-11-02T16:19:44.624Z,14.80
2022-11-02T16:22:11.387Z,14.80
2022-11-02T16:24:40.801Z,14.80
2022-11-02T16:27:12.522Z,14.80
2022-11-02T16:29:40.482Z,14.70
2022-11-02T16:32:10.784Z,14.80
2022-11-02T16:34:37.870Z,14.80
2022-11-02T16:37:10.053Z,14.90
2022-11-02T16:39:38.656Z,14.80
2022-11-02T16:42:09.969Z,14.90
2022-11-02T16:44:36.693Z,14.90
2022-11-02T16:47:06.411Z,14.90
2022-11-02T16:49:33.176Z,14.90
2022-11-02T16:52:00.491Z,14.90
2022-11-02T16:54:28.278Z,14.90
2022-11-02T16:56:55.881Z,15.00
2022-11-02T16:59:23.812Z,15.00
2022-11-02T17:01:50.557Z,15.00
2022-11-02T17:04:17.322Z,15.10
2022-11-02T17:06:44.129Z,15.10
2022-11-02T17:09:16.908Z,15.10
2022-11-02T17:11:43.709Z,15.20
2022-11-02T17:14:10.482Z,15.20
2022-11-02T17:16:37.189Z,15.30
2022-11-02T17:19:03.878Z,15.20
2022-11-02T17:21:30.612Z,15.30
2022-11-02T17:23:58.021Z,15.30
2022-11-02T17:26:26.023Z,15.30
2022-11-02T17:28:53.800Z,15.30
2022-11-02T17:31:21.451Z,15.30
2022-11-02T17:33:48.456Z,15.30
2022-11-02T17:36:15.163Z,15.40
2022-11-02T17:38:42.035Z,15.40
2022-11-02T17:41:30.567Z,15.40
2022-11-02T17:43:57.841Z,15.40
2022-11-02T17:46:24.611Z,15.40
2022-11-02T17:48:51.559Z,15.40
2022-11-02T17:51:18.488Z,15.50
2022-11-02T17:53:45.178Z,15.50
2022-11-02T17:56:11.933Z,15.50
2022-11-02T17:58:38.957Z,15.50
2022-11-02T18:01:05.781Z,15.50
2022-11-02T18:03:32.692Z,15.50
2022-11-02T18:06:00.632Z,15.50
2022-11-02T18:08:27.598Z,15.50
2022-11-02T18:10:54.284Z,15.50
2022-11-02T18:13:21.649Z,15.50
2022-11-02T18:15:48.327Z,15.30
2022-11-02T18:18:15.047Z,15.20
2022-11-02T18:20:42.225Z,15.10
2022-11-02T18:23:15.685Z,15.00
2022-11-02T18:25:42.419Z,14.90
2022-11-02T18:28:09.251Z,14.70
2022-11-02T18:30:35.947Z,14.70
2022-11-02T18:33:02.972Z,14.70
2022-11-02T18:35:29.675Z,14.70
2022-11-02T18:37:56.631Z,14.70
2022-11-02T18:40:23.307Z,14.60
2022-11-02T18:42:50.235Z,14.50
2022-11-02T18:45:17.153Z,14.40
2022-11-02T18:47:47.239Z,14.30
2022-11-02T18:50:14.076Z,14.30
2022-11-02T18:52:41.996Z,15.30
2022-11-02T18:55:08.642Z,14.00
2022-11-02T18:57:35.296Z,14.00
2022-11-02T19:00:03.066Z,14.10
2022-11-02T19:02:30.138Z,14.10
2022-11-02T19:04:57.375Z,14.20
2022-11-02T19:07:42.871Z,14.30
2022-11-02T19:10:10.216Z,14.40
2022-11-02T19:12:37.406Z,14.40
2022-11-02T19:15:04.305Z,14.50
2022-11-02T19:17:31.092Z,14.60
2022-11-02T19:19:57.753Z,14.60
2022-11-02T19:22:25.228Z,14.70
2022-11-02T19:24:52.240Z,14.90
2022-11-02T19:27:28.433Z,14.80
2022-11-02T19:29:55.845Z,14.80
2022-11-02T19:32:22.564Z,16.00
2022-11-02T19:34:52.505Z,14.90
2022-11-02T19:37:19.458Z,14.80
2022-11-02T19:39:46.240Z,14.80
2022-11-02T19:42:12.978Z,14.00
2022-11-02T19:44:57.399Z,14.60
2022-11-02T19:47:26.569Z,14.50
2022-11-02T19:49:53.228Z,14.50
2022-11-02T19:52:20.043Z,14.50
2022-11-02T19:54:46.681Z,14.50
2022-11-02T19:57:13.427Z,14.40
2022-11-02T19:59:40.120Z,14.30
2022-11-02T20:02:06.964Z,14.10
2022-11-02T20:04:39.426Z,14.00
2022-11-02T20:07:09.044Z,13.90
2022-11-02T20:09:36.101Z,13.80
2022-11-02T20:12:07.544Z,13.70
2022-11-02T20:14:36.355Z,13.70
2022-11-02T20:17:29.761Z,13.60
2022-11-02T20:19:49.851Z,13.50
2022-11-02T20:22:18.445Z,13.40
2022-11-02T20:24:45.105Z,13.40
2022-11-02T20:27:12.939Z,13.40
2022-11-02T20:29:40.652Z,13.40
2022-11-02T20:32:10.337Z,13.50
2022-11-02T20:34:37.090Z,13.50
2022-11-02T20:37:05.172Z,13.60
2022-11-02T20:39:32.096Z,13.70
2022-11-02T20:41:58.838Z,13.70
2022-11-02T20:44:25.576Z,13.80
2022-11-02T20:46:54.442Z,13.80
2022-11-02T20:49:48.328Z,13.80
2022-11-02T20:52:10.076Z,13.90
2022-11-02T20:54:36.946Z,14.00
2022-11-02T20:57:03.876Z,13.90
2022-11-02T20:59:30.704Z,14.00
2022-11-02T21:01:57.560Z,14.00
2022-11-02T21:04:24.373Z,14.00
2022-11-02T21:06:51.096Z,14.00
2022-11-02T21:09:18.060Z,14.00
2022-11-02T21:12:03.465Z,14.00
2022-11-02T21:14:30.255Z,14.00
2022-11-02T21:16:57.050Z,14.00
2022-11-02T21:19:23.890Z,14.00
2022-11-02T21:21:55.073Z,14.00
2022-11-02T21:24:24.983Z,13.70
2022-11-02T21:26:51.783Z,13.50
2022-11-02T21:29:18.484Z,14.20
2022-11-02T21:31:45.451Z,14.10
2022-11-02T21:34:12.086Z,14.50
2022-11-02T21:36:38.890Z,14.20
2022-11-02T21:39:05.694Z,14.30
2022-11-02T21:41:36.821Z,14.30
2022-11-02T21:44:04.619Z,14.30
2022-11-02T21:46:31.516Z,14.30
2022-11-02T21:48:58.360Z,14.40
2022-11-02T21:51:25.207Z,14.40
2022-11-02T21:53:51.971Z,14.40
2022-11-02T21:56:19.749Z,14.50
2022-11-02T21:58:47.480Z,14.50
2022-11-02T22:01:39.246Z,14.60
2022-11-02T22:04:06.522Z,14.60
2022-11-02T22:06:33.464Z,14.60
2022-11-02T22:09:00.318Z,14.80
2022-11-02T22:11:30.255Z,14.60
2022-11-02T22:13:57.714Z,14.60
2022-11-02T22:16:25.268Z,14.70
2022-11-02T22:18:53.136Z,14.70
2022-11-02T22:21:19.944Z,14.70
2022-11-02T22:23:46.923Z,14.60
2022-11-02T22:26:17.693Z,15.20
2022-11-02T22:28:45.159Z,14.60
2022-11-02T22:31:22.001Z,14.60
2022-11-02T22:33:49.453Z,14.60
2022-11-02T22:36:16.949Z,14.60
2022-11-02T22:38:56.119Z,14.60
2022-11-02T22:41:41.757Z,14.60
2022-11-02T22:44:09.810Z,14.60
2022-11-02T22:46:37.881Z,14.60
2022-11-02T22:49:05.168Z,14.60
2022-11-02T22:51:32.876Z,14.60
2022-11-02T22:54:00.715Z,14.60
2022-11-02T22:56:28.486Z,14.50
2022-11-02T22:58:56.078Z,14.40
2022-11-02T23:01:23.585Z,14.30
2022-11-02T23:03:50.531Z,14.30
2022-11-02T23:06:18.454Z,14.20
2022-11-02T23:08:48.262Z,14.20
2022-11-02T23:11:21.589Z,14.20
2022-11-02T23:13:49.471Z,14.00
2022-11-02T23:16:22.201Z,14.00
2022-11-02T23:19:07.720Z,13.90
2022-11-02T23:21:34.489Z,13.80
2022-11-02T23:24:19.969Z,13.80
2022-11-02T23:26:47.312Z,13.80
2022-11-02T23:29:32.906Z,13.70
2022-11-02T23:32:18.342Z,13.70
2022-11-02T23:35:04.921Z,13.60
2022-11-02T23:37:31.656Z,13.50
2022-11-02T23:39:58.499Z,13.50
2022-11-02T23:42:25.343Z,13.50
2022-11-02T23:44:55.159Z,13.40
2022-11-02T23:50:43.635Z,13.40
2022-11-02T23:53:32.689Z,13.30
2022-11-02T23:56:18.377Z,13.30
2022-11-02T23:58:45.184Z,13.30
